Time;durP1;ratioP1;P1;durP2;ratioP2;P2;SDS_P1;SDS_P2;PMS_P1;PMS_P2;Temp;Humidity;BMP_temperature;BMP_pressure;BME280_temperature;BME280_humidity;BME280_pressure;Samples;Min_cycle;Max_cycle;Signal;HPM_P1;HPM_P2
2022/07/31 00:02:10;;;;;;;0.75;0.75;;;20.70;99.90;20.80;101651.00;;;;5035797;28;20206;-65
2022/07/31 00:04:36;;;;;;;1.17;1.15;;;20.40;99.90;21.10;101654.00;;;;5035544;28;20190;-65
2022/07/31 00:07:02;;;;;;;2.33;2.13;;;20.40;99.90;20.60;101659.00;;;;5035674;28;20271;-65
2022/07/31 00:09:30;;;;;;;0.40;0.40;;;20.20;99.90;20.50;101659.00;;;;5035884;28;20182;-65
2022/07/31 00:11:59;;;;;;;0.30;0.30;;;20.10;99.90;21.20;101657.00;;;;5034349;28;20204;-65
2022/07/31 00:14:28;;;;;;;0.57;0.43;;;20.20;99.90;20.90;101646.00;;;;5035430;28;20182;-65
2022/07/31 00:16:54;;;;;;;0.30;0.30;;;20.20;99.90;21.20;101651.00;;;;5034704;28;20189;-66
2022/07/31 00:19:22;;;;;;;1.10;1.05;;;20.20;99.90;20.60;101650.00;;;;5050820;28;20170;-65
2022/07/31 00:21:51;;;;;;;1.30;1.10;;;20.10;99.90;21.30;101645.00;;;;5050630;28;20190;-66
2022/07/31 00:24:19;;;;;;;0.93;0.85;;;20.20;99.90;21.20;101630.00;;;;5050433;28;20633;-65
2022/07/31 00:26:48;;;;;;;0.68;0.68;;;20.20;99.90;21.40;101633.00;;;;5035352;28;20190;-65
2022/07/31 00:29:17;;;;;;;0.30;0.30;;;20.20;99.90;21.80;101638.00;;;;5035146;28;20190;-65
2022/07/31 00:31:45;;;;;;;0.38;0.38;;;20.40;99.90;22.10;101642.00;;;;5034932;28;20229;-65
2022/07/31 00:34:11;;;;;;;0.52;0.52;;;20.60;99.90;21.70;101627.00;;;;5035261;28;20179;-66
2022/07/31 00:36:39;;;;;;;0.30;0.30;;;20.60;99.90;22.20;101592.00;;;;5050171;28;20220;-66
2022/07/31 00:39:05;;;;;;;0.30;0.30;;;20.60;99.90;22.50;101638.00;;;;5050669;28;20614;-66
2022/07/31 00:41:44;;;;;;;0.30;0.30;;;20.80;99.90;22.10;101630.00;;;;5050253;28;20285;-66
2022/07/31 00:44:13;;;;;;;0.30;0.30;;;20.90;99.90;21.80;101621.00;;;;5050665;28;20629;-66
2022/07/31 00:46:40;;;;;;;1.58;1.58;;;20.70;99.90;22.60;101621.00;;;;5035087;28;20270;-66
2022/07/31 00:49:09;;;;;;;0.60;0.60;;;20.90;99.90;21.90;101638.00;;;;5050365;28;20178;-65
2022/07/31 00:51:38;;;;;;;0.30;0.30;;;20.80;99.90;21.10;101625.00;;;;5034690;28;20269;-65
2022/07/31 00:54:07;;;;;;;0.40;0.40;;;20.50;99.90;22.00;101633.00;;;;5049964;28;20523;-65
2022/07/31 00:56:33;;;;;;;0.30;0.30;;;20.50;99.90;21.60;101625.00;;;;5033922;28;20262;-65
2022/07/31 00:59:04;;;;;;;0.40;0.40;;;20.50;99.90;21.90;101633.00;;;;5050205;28;20212;-65
2022/07/31 01:01:31;;;;;;;0.30;0.30;;;20.50;99.90;22.20;101640.00;;;;5049932;28;20231;-65
2022/07/31 01:03:59;;;;;;;0.85;0.85;;;20.60;99.90;21.70;101634.00;;;;5050351;28;20189;-66
2022/07/31 01:06:29;;;;;;;0.40;0.40;;;20.60;99.90;21.80;101630.00;;;;5049711;28;20182;-66
2022/07/31 01:08:57;;;;;;;0.85;0.85;;;20.60;99.90;22.10;101627.00;;;;5050016;28;20181;-66
2022/07/31 01:11:41;;;;;;;0.30;0.30;;;20.60;99.90;22.20;101637.00;;;;5034501;28;20195;-66
2022/07/31 01:14:09;;;;;;;0.43;0.43;;;20.80;99.90;22.10;101626.00;;;;5049844;28;20179;-66
2022/07/31 01:16:49;;;;;;;0.30;0.30;;;20.80;99.90;22.10;101616.00;;;;5049834;28;20643;-66
2022/07/31 01:19:32;;;;;;;0.30;0.30;;;20.70;99.90;22.10;101624.00;;;;5050117;28;20170;-66
2022/07/31 01:22:45;;;;;;;1.33;1.23;;;20.80;99.90;21.50;101621.00;;;;5049582;28;20265;-66
2022/07/31 01:25:44;;;;;;;0.47;0.47;;;20.70;99.90;21.10;101603.00;;;;5034326;28;20184;-66
2022/07/31 01:28:38;;;;;;;0.40;0.40;;;20.50;99.90;20.90;101604.00;;;;5034202;28;20182;-66
2022/07/31 01:31:11;;;;;;;0.30;0.30;;;20.00;99.90;20.70;101606.00;;;;5033800;28;20680;-66
2022/07/31 01:33:51;;;;;;;0.67;0.67;;;19.90;99.90;20.80;101603.00;;;;5048204;28;20217;-66
2022/07/31 01:36:25;;;;;;;0.30;0.30;;;19.90;99.90;21.60;101597.00;;;;5049211;28;20178;-66
2022/07/31 01:38:53;;;;;;;0.30;0.30;;;20.10;99.90;21.70;101592.00;;;;5049632;28;20321;-66
2022/07/31 01:41:29;;;;;;;0.30;0.30;;;20.30;99.90;22.00;101587.00;;;;5049368;28;20624;-66
2022/07/31 01:44:06;;;;;;;0.30;0.30;;;20.40;99.90;21.50;101561.00;;;;5049396;28;20609;-66
2022/07/31 01:46:37;;;;;;;0.40;0.40;;;20.40;99.90;21.20;101594.00;;;;5047814;28;20172;-66
2022/07/31 01:49:08;;;;;;;0.40;0.40;;;20.20;99.90;21.30;101597.00;;;;5021592;28;20193;-66
2022/07/31 01:51:38;;;;;;;0.30;0.30;;;20.20;99.90;21.60;101590.00;;;;5052296;28;20208;-66
2022/07/31 01:54:05;;;;;;;0.30;0.30;;;20.30;99.90;22.00;101597.00;;;;5031663;28;20185;-66
2022/07/31 01:56:34;;;;;;;0.30;0.30;;;20.40;99.90;21.60;101591.00;;;;5022062;28;20212;-66
2022/07/31 01:59:03;;;;;;;0.30;0.30;;;20.50;99.90;21.40;101584.00;;;;5012721;28;20179;-65
2022/07/31 02:01:31;;;;;;;0.30;0.30;;;20.30;99.90;21.10;101544.00;;;;5012758;28;20190;-65
2022/07/31 02:03:57;;;;;;;0.30;0.30;;;20.00;99.90;21.40;101587.00;;;;5012778;28;20213;-66
2022/07/31 02:06:24;;;;;;;0.30;0.30;;;20.10;99.90;21.00;101574.00;;;;5012778;28;20187;-66
2022/07/31 02:08:57;;;;;;;0.40;0.40;;;20.00;99.90;21.20;101583.00;;;;5012859;28;20185;-65
2022/07/31 02:11:25;;;;;;;0.30;0.30;;;20.00;99.90;21.60;101587.00;;;;5013570;28;20201;-66
2022/07/31 02:13:52;;;;;;;0.30;0.30;;;20.20;99.90;21.20;101585.00;;;;5013630;28;20186;-66
2022/07/31 02:16:22;;;;;;;0.40;0.40;;;20.20;99.90;21.40;101567.00;;;;5012798;28;20179;-65
2022/07/31 02:18:53;;;;;;;0.30;0.30;;;20.20;99.90;21.20;101576.00;;;;5012343;28;20209;-65
2022/07/31 02:21:21;;;;;;;0.30;0.30;;;20.10;99.90;20.90;101566.00;;;;5012585;28;20178;-65
2022/07/31 02:23:49;;;;;;;0.30;0.30;;;19.90;99.90;20.90;101563.00;;;;5013792;28;20254;-66
2022/07/31 02:26:19;;;;;;;0.30;0.30;;;19.80;99.90;21.00;101565.00;;;;5013420;28;20680;-66
2022/07/31 02:28:46;;;;;;;0.30;0.30;;;19.80;99.90;20.20;101572.00;;;;5013372;28;20172;-65
2022/07/31 02:31:31;;;;;;;0.30;0.30;;;19.50;99.90;20.30;101573.00;;;;5012280;28;20552;-65
2022/07/31 02:33:58;;;;;;;0.30;0.30;;;19.40;99.90;20.50;101567.00;;;;4995971;28;20188;-65
2022/07/31 02:36:26;;;;;;;0.38;0.38;;;19.50;99.90;20.10;101547.00;;;;5012314;28;20178;-65
2022/07/31 02:38:56;;;;;;;0.30;0.30;;;19.30;99.90;20.30;101554.00;;;;5013371;28;20182;-65
2022/07/31 02:41:25;;;;;;;0.30;0.30;;;19.30;99.90;20.60;101535.00;;;;5012410;28;20260;-65
2022/07/31 02:43:55;;;;;;;0.35;0.35;;;19.40;99.90;20.90;101557.00;;;;5011916;28;20549;-65
2022/07/31 02:46:21;;;;;;;0.38;0.38;;;19.60;99.90;21.20;101559.00;;;;5012008;28;21080;-65
2022/07/31 02:48:50;;;;;;;0.30;0.30;;;19.70;99.90;20.60;101549.00;;;;5012061;28;20629;-65
2022/07/31 02:51:22;;;;;;;0.40;0.40;;;19.60;99.90;21.20;101564.00;;;;5012141;28;20727;-65
2022/07/31 02:53:48;;;;;;;0.40;0.40;;;19.70;99.90;21.10;101559.00;;;;5012293;28;20190;-65
2022/07/31 02:56:19;;;;;;;0.50;0.50;;;19.90;99.90;21.00;101526.00;;;;5012180;28;20216;-65
2022/07/31 02:58:47;;;;;;;0.40;0.40;;;19.80;99.90;21.20;101561.00;;;;5013311;28;20568;-65
2022/07/31 03:01:15;;;;;;;0.30;0.30;;;19.90;99.90;20.90;101563.00;;;;5011848;28;20195;-65
2022/07/31 03:03:44;;;;;;;0.73;0.53;;;19.80;99.90;20.60;101552.00;;;;5013044;28;20175;-65
2022/07/31 03:06:10;;;;;;;0.40;0.40;;;19.70;99.90;20.70;101553.00;;;;5013573;28;20180;-65
2022/07/31 03:08:38;;;;;;;0.30;0.30;;;19.70;99.90;21.20;101555.00;;;;5012327;28;20221;-65
2022/07/31 03:11:08;;;;;;;0.30;0.30;;;19.80;99.90;21.10;101543.00;;;;5013537;28;20565;-65
2022/07/31 03:13:36;;;;;;;0.37;0.37;;;20.00;99.90;20.70;101542.00;;;;5012833;28;20190;-65
2022/07/31 03:16:06;;;;;;;0.50;0.50;;;19.70;99.90;20.70;101542.00;;;;5011637;28;20182;-65
2022/07/31 03:18:35;;;;;;;0.90;0.90;;;19.70;99.90;21.10;101541.00;;;;5013257;28;20186;-65
2022/07/31 03:21:03;;;;;;;0.47;0.47;;;19.80;99.90;20.20;101554.00;;;;5015657;28;20178;-65
2022/07/31 03:23:35;;;;;;;0.40;0.40;;;19.50;99.90;19.60;101551.00;;;;5015777;28;20661;-65
2022/07/31 03:26:03;;;;;;;0.40;0.40;;;19.10;99.90;19.60;101556.00;;;;5015990;28;20741;-65
2022/07/31 03:28:38;;;;;;;0.30;0.30;;;19.00;99.90;19.90;101557.00;;;;5015229;28;20184;-65
2022/07/31 03:31:06;;;;;;;0.50;0.50;;;18.90;99.90;20.20;101527.00;;;;5015262;28;20574;-65
2022/07/31 03:33:33;;;;;;;0.40;0.40;;;19.10;99.90;20.90;101550.00;;;;5015422;28;20181;-66
2022/07/31 03:36:01;;;;;;;0.40;0.40;;;19.40;99.90;20.90;101513.00;;;;5015525;28;20231;-65
2022/07/31 03:38:29;;;;;;;0.40;0.40;;;19.60;99.90;21.20;101533.00;;;;5015289;28;20181;-66
2022/07/31 03:40:58;;;;;;;0.40;0.40;;;19.70;99.90;20.70;101527.00;;;;5015339;28;20690;-65
2022/07/31 03:43:24;;;;;;;1.30;1.00;;;19.80;99.90;20.20;101529.00;;;;5016035;28;20193;-65
2022/07/31 03:45:51;;;;;;;0.80;0.80;;;19.50;99.90;19.70;101534.00;;;;5014936;28;20190;-65
2022/07/31 03:48:20;;;;;;;0.30;0.30;;;19.20;99.90;20.20;101549.00;;;;5015180;28;20204;-65
2022/07/31 03:50:48;;;;;;;0.40;0.40;;;19.20;99.90;20.50;101522.00;;;;5016275;28;20668;-66
2022/07/31 03:53:17;;;;;;;0.60;0.60;;;19.30;99.90;20.50;101546.00;;;;5014979;28;20228;-66
2022/07/31 03:55:44;;;;;;;0.40;0.40;;;19.50;99.90;20.00;101549.00;;;;5014887;28;20177;-66
2022/07/31 03:58:11;;;;;;;0.43;0.43;;;19.30;99.90;20.30;101540.00;;;;5014968;28;20220;-66
2022/07/31 04:00:40;;;;;;;0.90;0.90;;;19.20;99.90;20.20;101552.00;;;;5014886;28;20188;-66
2022/07/31 04:03:11;;;;;;;0.43;0.43;;;19.20;99.90;20.20;101541.00;;;;5016431;28;20652;-65
2022/07/31 04:05:43;;;;;;;0.40;0.40;;;19.20;99.90;20.00;101536.00;;;;5014790;28;20548;-65
2022/07/31 04:08:14;;;;;;;0.40;0.40;;;19.10;99.90;20.40;101543.00;;;;5027178;28;20192;-66
2022/07/31 04:10:43;;;;;;;0.50;0.50;;;19.20;99.90;19.50;101550.00;;;;5035691;28;20173;-65
2022/07/31 04:13:11;;;;;;;0.40;0.40;;;19.10;99.90;20.00;101546.00;;;;5035036;28;20679;-65
2022/07/31 04:15:42;;;;;;;0.40;0.40;;;19.00;99.90;19.90;101544.00;;;;5034462;28;20578;-66
2022/07/31 04:18:19;;;;;;;0.40;0.40;;;19.00;99.90;20.00;101542.00;;;;5017841;28;20246;-66
2022/07/31 04:20:52;;;;;;;0.47;0.47;;;19.00;99.90;19.90;101543.00;;;;5034628;28;20236;-66
2022/07/31 04:23:24;;;;;;;0.40;0.40;;;18.90;99.90;20.60;101506.00;;;;5034688;28;20179;-66
2022/07/31 04:25:52;;;;;;;0.50;0.50;;;19.20;99.90;20.90;101522.00;;;;5018550;28;20246;-66
2022/07/31 04:28:18;;;;;;;0.40;0.40;;;19.50;99.90;20.30;101520.00;;;;5033985;28;20697;-65
2022/07/31 04:30:44;;;;;;;0.40;0.40;;;19.40;99.90;20.90;101517.00;;;;5035140;28;20278;-66
2022/07/31 04:33:17;;;;;;;0.50;0.50;;;19.50;99.90;20.80;101486.00;;;;5035238;28;20207;-66
2022/07/31 04:35:45;;;;;;;0.60;0.60;;;19.60;99.90;20.50;101485.00;;;;5035356;28;20190;-65
2022/07/31 04:38:15;;;;;;;0.80;0.80;;;19.60;99.90;19.80;101531.00;;;;5034140;28;20175;-66
2022/07/31 04:41:13;;;;;;;0.80;0.80;;;19.20;99.90;19.70;101529.00;;;;5034291;28;20190;-66
2022/07/31 04:43:42;;;;;;;0.40;0.40;;;18.90;99.90;20.30;101532.00;;;;5035023;28;20238;-66
2022/07/31 04:46:10;;;;;;;0.50;0.50;;;19.10;99.90;20.50;101527.00;;;;5035251;28;20200;-66
2022/07/31 04:48:39;;;;;;;0.40;0.40;;;19.20;99.90;20.50;101531.00;;;;5034373;28;20187;-66
2022/07/31 04:51:07;;;;;;;0.50;0.50;;;19.20;99.90;20.70;101524.00;;;;5033788;28;20188;-66
2022/07/31 04:53:37;;;;;;;0.55;0.55;;;19.30;99.90;20.80;101519.00;;;;5033707;28;20528;-66
2022/07/31 04:58:53;;;;;;;0.40;0.40;;;19.60;99.90;20.70;101516.00;;;;5033707;28;20610;-66
2022/07/31 05:01:21;;;;;;;0.40;0.40;;;19.60;99.90;21.00;101511.00;;;;5033538;28;20179;-66
2022/07/31 05:03:50;;;;;;;0.50;0.50;;;19.60;99.90;21.30;101507.00;;;;5033660;28;20170;-66
2022/07/31 05:06:16;;;;;;;0.40;0.40;;;19.80;99.90;20.80;101494.00;;;;5017059;28;20183;-66
2022/07/31 05:08:42;;;;;;;0.40;0.40;;;19.60;99.90;21.10;101508.00;;;;5034719;28;20233;-66
2022/07/31 05:11:24;;;;;;;0.40;0.40;;;19.80;99.90;21.50;101512.00;;;;5034298;28;20177;-66
2022/07/31 05:13:56;;;;;;;0.50;0.50;;;19.90;99.90;20.90;101502.00;;;;5033312;28;20177;-66
2022/07/31 05:16:25;;;;;;;0.40;0.40;;;19.90;99.90;21.20;101512.00;;;;5033517;28;20234;-66
2022/07/31 05:18:51;;;;;;;0.40;0.40;;;20.00;99.90;21.40;101517.00;;;;5034624;28;20176;-66
2022/07/31 05:21:18;;;;;;;0.40;0.40;;;20.10;99.90;21.00;101520.00;;;;5032773;28;20225;-66
2022/07/31 05:23:46;;;;;;;0.40;0.40;;;20.00;99.90;21.70;101514.00;;;;5033443;28;20181;-65
2022/07/31 05:26:20;;;;;;;0.52;0.52;;;20.20;99.90;20.90;101516.00;;;;5032928;28;20172;-65
2022/07/31 05:28:48;;;;;;;2.30;1.47;;;20.20;99.90;20.70;101516.00;;;;5033007;28;20273;-65
2022/07/31 05:31:18;;;;;;;0.30;0.30;;;19.90;99.90;19.90;101503.00;;;;5033859;28;20268;-65
2022/07/31 05:33:46;;;;;;;0.32;0.32;;;19.50;99.90;20.40;101526.00;;;;5034037;28;20238;-65
2022/07/31 05:36:13;;;;;;;0.40;0.40;;;19.60;99.90;20.90;101498.00;;;;5033943;28;20181;-65
2022/07/31 05:38:39;;;;;;;0.47;0.47;;;19.60;99.90;21.30;101516.00;;;;5032962;28;20189;-65
2022/07/31 05:41:10;;;;;;;0.40;0.40;;;19.90;99.90;21.00;101508.00;;;;5033189;28;20649;-65
2022/07/31 05:43:37;;;;;;;0.30;0.30;;;20.10;99.90;20.40;101508.00;;;;5033722;28;20563;-66
2022/07/31 05:46:07;;;;;;;0.40;0.40;;;19.80;99.90;20.70;101507.00;;;;5033194;28;20255;-66
2022/07/31 05:48:33;;;;;;;0.30;0.30;;;19.70;99.90;21.30;101512.00;;;;5032906;28;20186;-66
2022/07/31 05:50:59;;;;;;;0.40;0.40;;;20.00;99.90;21.50;101518.00;;;;5032580;28;20173;-66
2022/07/31 05:53:28;;;;;;;0.40;0.40;;;20.20;99.90;21.80;101500.00;;;;5032484;28;20214;-66
2022/07/31 05:55:56;;;;;;;0.40;0.40;;;20.50;99.90;21.60;101506.00;;;;5033555;28;20178;-66
2022/07/31 05:58:24;;;;;;;0.30;0.30;;;20.50;99.90;22.10;101480.00;;;;5032209;28;20214;-66
2022/07/31 06:00:52;;;;;;;0.40;0.40;;;20.70;99.90;22.10;101499.00;;;;5033584;28;20270;-66
2022/07/31 06:03:28;;;;;;;0.32;0.32;;;20.70;99.90;21.20;101502.00;;;;5033527;28;20182;-66
2022/07/31 06:05:56;;;;;;;0.40;0.40;;;20.70;99.90;21.50;101522.00;;;;5033787;28;20217;-65
2022/07/31 06:08:24;;;;;;;0.30;0.30;;;20.50;99.90;20.60;101516.00;;;;5032249;28;20274;-65
2022/07/31 06:10:52;;;;;;;0.52;0.52;;;20.20;99.90;21.00;101528.00;;;;5033704;28;20159;-65
2022/07/31 06:13:23;;;;;;;0.50;0.50;;;20.10;99.90;21.50;101522.00;;;;5031910;28;20228;-65
2022/07/31 06:15:51;;;;;;;2.47;0.82;;;20.40;99.90;22.20;101511.00;;;;5032285;28;20575;-65
2022/07/31 06:18:25;;;;;;;0.30;0.30;;;20.80;99.90;21.60;101509.00;;;;5033298;28;20183;-65
2022/07/31 06:20:53;;;;;;;1.08;1.05;;;20.80;99.90;22.40;101514.00;;;;5032305;28;20236;-65
2022/07/31 06:23:22;;;;;;;0.50;0.50;;;21.10;99.90;21.30;101514.00;;;;5033234;28;20604;-65
2022/07/31 06:25:48;;;;;;;1.17;1.05;;;20.80;99.90;22.50;101517.00;;;;5031890;28;20239;-66
2022/07/31 06:28:14;;;;;;;0.30;0.30;;;21.00;99.90;22.40;101514.00;;;;5033197;28;20202;-66
2022/07/31 06:30:43;;;;;;;0.30;0.30;;;21.10;99.90;21.70;101503.00;;;;5032098;28;20244;-66
2022/07/31 06:33:14;;;;;;;0.45;0.45;;;20.90;99.90;22.20;101508.00;;;;5033673;28;20572;-65
2022/07/31 06:35:40;;;;;;;0.28;0.28;;;21.10;99.90;22.20;101484.00;;;;5031974;28;20163;-65
2022/07/31 06:38:11;;;;;;;0.30;0.30;;;21.20;99.90;21.80;101512.00;;;;5031677;28;20182;-66
2022/07/31 06:40:38;;;;;;;1.05;1.02;;;21.10;99.90;21.80;101503.00;;;;5031999;28;20179;-65
2022/07/31 06:43:04;;;;;;;0.90;0.90;;;21.00;99.90;22.30;101513.00;;;;5033298;28;20274;-66
2022/07/31 06:45:30;;;;;;;1.05;1.05;;;21.10;99.90;23.00;101507.00;;;;5031751;28;20698;-66
2022/07/31 06:47:56;;;;;;;0.40;0.40;;;21.50;99.90;23.90;101497.00;;;;5015541;28;20548;-66
2022/07/31 06:50:22;;;;;;;0.60;0.60;;;22.10;99.90;22.90;101506.00;;;;5031943;28;20178;-66
2022/07/31 06:52:50;;;;;;;0.32;0.32;;;22.00;99.90;22.80;101502.00;;;;5031602;28;20646;-65
2022/07/31 06:55:24;;;;;;;0.30;0.30;;;22.00;99.90;21.40;101503.00;;;;5037101;28;20657;-65
2022/07/31 06:57:53;;;;;;;0.40;0.40;;;21.30;99.90;23.30;101494.00;;;;5036963;28;20178;-65
2022/07/31 07:00:19;;;;;;;0.30;0.30;;;21.80;99.90;22.80;101506.00;;;;5035746;28;20186;-66
2022/07/31 07:02:49;;;;;;;4.13;1.67;;;21.90;99.90;22.10;101488.00;;;;5019095;28;20183;-67
2022/07/31 07:05:24;;;;;;;0.30;0.30;;;21.60;99.90;23.50;101504.00;;;;5019239;28;20270;-68
2022/07/31 07:08:11;;;;;;;0.30;0.30;;;22.00;99.90;24.30;101496.00;;;;5035464;28;20190;-68
2022/07/31 07:10:45;;;;;;;0.40;0.40;;;22.50;99.90;23.70;101510.00;;;;5029204;28;20218;-68
2022/07/31 07:13:55;;;;;;;2.53;2.00;;;22.80;99.90;22.00;101509.00;;;;5015858;28;20289;-68
2022/07/31 07:17:10;;;;;;;0.90;0.77;;;22.00;99.90;21.20;101516.00;;;;5011794;28;20203;-68
2022/07/31 07:19:42;;;;;;;0.98;0.88;;;21.10;99.90;22.20;101528.00;;;;5016489;28;20659;-69
2022/07/31 07:22:22;;;;;;;0.55;0.55;;;21.40;99.90;21.40;101527.00;;;;5016697;28;20199;-69
2022/07/31 07:24:50;;;;;;;1.45;1.40;;;21.10;99.90;21.80;101531.00;;;;5015997;28;20198;-69
2022/07/31 07:27:21;;;;;;;0.20;0.20;;;21.30;99.90;23.10;101529.00;;;;5015598;28;20190;-69
2022/07/31 07:29:50;;;;;;;1.63;1.52;;;21.90;99.90;22.00;101520.00;;;;5015560;28;20559;-68
2022/07/31 07:32:29;;;;;;;3.05;1.25;;;21.80;99.90;22.80;101517.00;;;;5039697;28;20219;-69
2022/07/31 07:35:01;;;;;;;0.10;0.10;;;21.90;99.90;24.30;101518.00;;;;5051876;28;20245;-69
2022/07/31 07:37:39;;;;;;;0.80;0.80;;;22.80;99.90;25.80;101521.00;;;;5035339;28;20182;-70
2022/07/31 07:40:10;;;;;;;0.38;0.38;;;24.20;99.90;25.10;101511.00;;;;5035140;28;20178;-70
2022/07/31 07:43:08;;;;;;;0.10;0.10;;;24.30;99.90;26.60;101527.00;;;;5050885;28;20179;-70
2022/07/31 07:46:14;;;;;;;0.10;0.10;;;25.00;99.90;26.70;101529.00;;;;5026064;28;20194;-70
2022/07/31 07:49:02;;;;;;;0.43;0.20;;;25.40;99.90;25.30;101506.00;;;;5034957;28;20179;-69
2022/07/31 07:51:35;;;;;;;1.17;0.52;;;24.70;99.90;25.00;101502.00;;;;5034619;28;20586;-69
2022/07/31 07:54:07;;;;;;;2.63;2.42;;;24.50;99.90;22.90;101485.00;;;;5051224;28;20190;-69
2022/07/31 07:57:03;;;;;;;0.28;0.28;;;23.10;99.90;25.50;101492.00;;;;5035916;28;20197;-70
2022/07/31 08:00:06;;;;;;;0.85;0.85;;;23.70;99.90;26.10;101519.00;;;;5034520;28;20198;-70
2022/07/31 08:02:33;;;;;;;0.25;0.25;;;24.90;99.90;27.40;101518.00;;;;5021647;28;20553;-70
2022/07/31 08:05:22;;;;;;;0.20;0.20;;;25.70;99.90;27.00;101534.00;;;;5033335;28;20175;-71
2022/07/31 08:08:06;;;;;;;0.30;0.30;;;25.70;99.90;24.60;101510.00;;;;5033566;28;20171;-70
2022/07/31 08:14:34;;;;;;;0.93;0.93;;;24.20;99.90;25.60;101517.00;;;;5035424;28;20250;-70
2022/07/31 08:17:12;;;;;;;0.40;0.40;;;24.00;99.90;26.40;101553.00;;;;5032355;28;20210;-71
2022/07/31 08:19:56;;;;;;;0.63;0.20;;;25.20;99.90;25.80;101522.00;;;;5012289;28;20204;-70
2022/07/31 08:23:00;;;;;;;0.32;0.32;;;25.10;99.90;24.70;101532.00;;;;5033974;28;20171;-70
2022/07/31 08:25:56;;;;;;;2.33;1.05;;;24.70;99.90;23.30;101472.00;;;;5015638;28;20182;-70
2022/07/31 08:29:20;;;;;;;1.27;1.13;;;23.40;99.90;23.50;101485.00;;;;5002490;28;20262;-70
2022/07/31 08:32:05;;;;;;;0.38;0.38;;;23.00;99.90;25.70;101510.00;;;;5013259;28;20310;-71
2022/07/31 08:35:07;;;;;;;0.10;0.10;;;24.40;99.90;25.30;101516.00;;;;5016693;28;20189;-71
2022/07/31 08:41:40;;;;;;;0.45;0.45;;;24.80;99.90;25.90;101522.00;;;;5034563;28;20209;-71
2022/07/31 08:44:44;;;;;;;0.17;0.17;;;24.80;99.90;24.20;101470.00;;;;5014585;28;20664;-70
2022/07/31 08:47:31;;;;;;;0.10;0.10;;;23.80;99.90;24.60;101498.00;;;;5049421;28;20178;-70
2022/07/31 08:50:15;;;;;;;2.42;1.23;;;23.70;99.90;26.00;101507.00;;;;5032722;28;20216;-70
2022/07/31 08:52:53;;;;;;;3.30;1.55;;;24.30;99.90;25.70;101528.00;;;;4953498;28;20234;-70
2022/07/31 09:45:26;;;;;;;0.30;0.30;;;24.10;99.90;24.60;101517.00;;;;5074696;28;20617;-70
2022/07/31 09:48:48;;;;;;;2.85;2.25;;;23.90;99.90;23.70;101498.00;;;;5012903;28;20649;-70
2022/07/31 09:52:01;;;;;;;5.65;2.15;;;23.30;99.90;23.50;101499.00;;;;5012292;28;21032;-70
2022/07/31 09:55:01;;;;;;;3.25;2.75;;;23.10;99.90;25.00;101516.00;;;;4995217;28;20193;-69
2022/07/31 09:58:10;;;;;;;1.45;1.35;;;23.60;99.90;24.70;101509.00;;;;5010191;28;20198;-69
2022/07/31 10:01:14;;;;;;;2.92;1.13;;;24.10;99.90;25.50;101518.00;;;;4995310;28;20557;-68
2022/07/31 10:04:16;;;;;;;1.48;1.13;;;24.20;99.90;25.10;101519.00;;;;5010798;28;20299;-69
2022/07/31 10:08:27;;;;;;;2.95;1.55;;;24.30;99.90;24.50;101521.00;;;;4981303;28;20206;-69
2022/07/31 10:11:15;;;;;;;3.67;1.83;;;24.00;99.90;24.30;101505.00;;;;4991286;28;20184;-68
2022/07/31 10:14:46;;;;;;;3.83;1.40;;;23.80;99.90;23.80;101506.00;;;;4979075;28;20202;-68
2022/07/31 10:33:30;;;;;;;1.20;1.15;;;23.40;99.90;24.80;101510.00;;;;5110754;27;20547;-68
2022/07/31 10:36:56;;;;;;;0.20;0.20;;;23.90;99.90;24.50;101504.00;;;;5089444;28;20216;-69
2022/07/31 10:39:51;;;;;;;0.47;0.47;;;24.10;99.90;24.70;101504.00;;;;5031052;28;20182;-68
2022/07/31 10:42:48;;;;;;;1.67;1.58;;;23.90;99.90;25.90;101531.00;;;;5031499;28;20301;-68
2022/07/31 10:45:57;;;;;;;0.57;0.57;;;24.50;99.90;24.90;101506.00;;;;5031144;28;20230;-68
2022/07/31 10:48:29;;;;;;;1.15;1.13;;;24.30;99.90;24.70;101494.00;;;;5004335;28;20197;-68
2022/07/31 10:51:14;;;;;;;0.90;0.90;;;24.00;99.90;24.40;101500.00;;;;5030922;28;20281;-68
2022/07/31 10:54:10;;;;;;;0.95;0.95;;;23.80;99.90;23.70;101483.00;;;;5014783;28;20221;-68
2022/07/31 10:56:47;;;;;;;0.57;0.40;;;23.30;99.90;24.20;101486.00;;;;5034458;28;20231;-71
2022/07/31 10:59:55;;;;;;;2.95;1.60;;;23.50;99.90;24.70;101484.00;;;;5031368;28;20331;-69
2022/07/31 11:02:56;;;;;;;0.30;0.30;;;23.90;99.90;25.40;101481.00;;;;5013960;28;20198;-73
2022/07/31 11:05:29;;;;;;;2.03;0.32;;;24.30;99.90;26.40;101482.00;;;;4992047;28;20214;-69
2022/07/31 11:09:08;;;;;;;0.90;0.90;;;25.00;99.90;25.20;101490.00;;;;5009432;28;20182;-69
2022/07/31 11:15:28;;;;;;;0.20;0.20;;;24.30;99.90;25.30;101476.00;;;;5073940;28;20588;-69
2022/07/31 11:18:15;;;;;;;0.40;0.40;;;24.60;99.90;26.20;101498.00;;;;5071914;28;20185;-69
2022/07/31 11:22:11;;;;;;;0.25;0.25;;;25.20;99.90;26.00;101497.00;;;;5068477;28;20185;-69
2022/07/31 11:24:57;;;;;;;1.45;0.90;;;25.10;99.90;26.40;101500.00;;;;5047384;28;20192;-69
2022/07/31 11:27:33;;;;;;;1.00;0.90;;;25.50;99.90;27.10;101514.00;;;;5072130;28;20654;-69
2022/07/31 11:30:23;;;;;;;0.77;0.77;;;25.70;99.90;26.80;101517.00;;;;5071101;28;20204;-69
2022/07/31 11:32:58;;;;;;;1.25;1.15;;;26.20;99.90;25.90;101519.00;;;;5063648;28;20753;-69
2022/07/31 11:35:44;;;;;;;0.60;0.60;;;25.60;99.90;26.00;101486.00;;;;5088436;28;20183;-70
2022/07/31 11:38:10;;;;;;;1.58;0.63;;;25.20;99.90;25.30;101468.00;;;;5088171;28;20233;-70
2022/07/31 11:41:00;;;;;;;1.98;1.27;;;25.00;99.90;25.40;101485.00;;;;5088280;28;20264;-69
2022/07/31 11:44:33;;;;;;;1.95;1.75;;;24.80;99.90;24.70;101463.00;;;;5081195;28;20186;-73
2022/07/31 11:55:07;;;;;;;1.92;1.75;;;24.30;99.90;25.50;101470.00;;;;5075163;28;20251;-73
2022/07/31 11:57:56;;;;;;;0.10;0.10;;;24.40;99.90;26.00;101492.00;;;;5050301;28;20217;-73
2022/07/31 12:00:47;;;;;;;0.40;0.40;;;24.90;99.90;25.50;101474.00;;;;5058615;28;20211;-73
2022/07/31 12:03:41;;;;;;;2.50;1.55;;;24.70;99.90;25.60;101467.00;;;;5057592;28;20545;-73
2022/07/31 12:06:46;;;;;;;2.50;1.25;;;24.60;99.90;24.80;101469.00;;;;5049435;28;20227;-74
2022/07/31 12:09:17;;;;;;;0.20;0.20;;;24.50;99.90;24.50;101469.00;;;;5074246;28;20208;-73
2022/07/31 12:19:05;;;;;;;0.40;0.40;;;24.60;99.90;25.80;101470.00;;;;5072203;28;20239;-73
2022/07/31 12:25:40;;;;;;;0.80;0.80;;;25.20;99.90;26.00;101479.00;;;;5074320;28;20183;-73
2022/07/31 12:31:52;;;;;;;0.20;0.20;;;25.40;99.90;26.10;101462.00;;;;5074050;28;20215;-73
2022/07/31 12:34:41;;;;;;;0.10;0.10;;;25.20;99.90;26.50;101454.00;;;;5056014;28;20178;-73
2022/07/31 12:37:30;;;;;;;0.10;0.10;;;25.30;99.90;28.30;101484.00;;;;5057588;28;20172;-73
2022/07/31 12:40:26;;;;;;;0.55;0.50;;;26.10;99.90;27.70;101516.00;;;;5040710;28;20185;-73
2022/07/31 12:43:27;;;;;;;0.40;0.40;;;26.80;99.90;26.60;101478.00;;;;5040165;28;20177;-74
2022/07/31 12:46:37;;;;;;;0.35;0.35;;;26.00;99.90;26.60;101476.00;;;;5040167;28;20177;-73
2022/07/31 12:49:38;;;;;;;1.40;1.25;;;25.80;99.90;26.50;101473.00;;;;5057222;28;20326;-73
2022/07/31 12:52:22;;;;;;;7.13;0.93;;;25.70;99.90;26.60;101482.00;;;;5057020;28;20659;-73
2022/07/31 12:55:31;;;;;;;0.77;0.22;;;25.90;99.90;25.80;101469.00;;;;5055914;28;20667;-72
2022/07/31 12:58:52;;;;;;;0.75;0.70;;;25.40;99.90;25.60;101464.00;;;;5057058;28;20181;-73
2022/07/31 13:01:53;;;;;;;0.10;0.10;;;25.40;99.90;25.90;101453.00;;;;5040381;28;20181;-73
2022/07/31 13:05:02;;;;;;;1.15;0.50;;;25.00;99.90;25.50;101456.00;;;;5056361;28;20173;-72
2022/07/31 13:08:07;;;;;;;2.28;0.65;;;25.20;99.90;25.50;101457.00;;;;5039881;28;20184;-73
2022/07/31 13:11:08;;;;;;;0.85;0.73;;;25.00;99.90;25.40;101429.00;;;;5056708;28;20543;-73
2022/07/31 13:14:27;;;;;;;0.45;0.45;;;24.90;99.90;25.30;101459.00;;;;5074267;28;20233;-72
2022/07/31 13:17:48;;;;;;;0.93;0.73;;;24.90;99.90;25.40;101448.00;;;;5056252;28;20625;-72
2022/07/31 13:21:13;;;;;;;0.85;0.68;;;24.70;99.90;25.60;101442.00;;;;5056730;28;20200;-73